createdAt,value
2022-11-16T00:01:13.263Z,9.21
2022-11-16T00:03:40.807Z,9.19
2022-11-16T00:06:08.604Z,9.15
2022-11-16T00:08:47.276Z,9.19
2022-11-16T00:11:17.050Z,9.23
2022-11-16T00:13:44.405Z,9.25
2022-11-16T00:16:18.192Z,9.23
2022-11-16T00:18:45.187Z,9.26
2022-11-16T00:21:12.183Z,9.28
2022-11-16T00:23:39.426Z,9.28
2022-11-16T00:26:07.876Z,9.25
2022-11-16T00:28:35.684Z,9.23
2022-11-16T00:31:05.046Z,9.22
2022-11-16T00:33:32.566Z,9.20
2022-11-16T00:36:07.821Z,9.23
2022-11-16T00:38:35.172Z,9.27
2022-11-16T00:41:02.443Z,9.30
2022-11-16T00:43:30.124Z,9.31
2022-11-16T00:45:57.241Z,9.32
2022-11-16T00:48:24.325Z,9.31
2022-11-16T00:50:51.518Z,9.29
2022-11-16T00:53:20.409Z,9.28
2022-11-16T00:55:48.304Z,9.23
2022-11-16T00:58:17.443Z,9.24
2022-11-16T01:00:48.672Z,9.22
2022-11-16T01:03:15.996Z,9.17
2022-11-16T01:05:43.001Z,9.12
2022-11-16T01:08:10.331Z,9.12
2022-11-16T01:10:39.730Z,9.08
2022-11-16T01:13:07.128Z,9.02
2022-11-16T01:15:34.182Z,9.01
2022-11-16T01:18:01.172Z,9.03
2022-11-16T01:20:29.451Z,9.05
2022-11-16T01:22:57.000Z,9.00
2022-11-16T01:25:24.185Z,8.97
2022-11-16T01:27:51.221Z,8.97
2022-11-16T01:30:25.306Z,8.96
2022-11-16T01:33:02.611Z,8.95
2022-11-16T01:35:29.606Z,8.89
2022-11-16T01:37:57.008Z,8.88
2022-11-16T01:40:27.060Z,8.92
2022-11-16T01:42:54.112Z,8.87
2022-11-16T01:45:39.868Z,8.87
2022-11-16T01:48:11.314Z,8.91
2022-11-16T01:50:39.329Z,8.83
2022-11-16T01:53:08.839Z,8.87
2022-11-16T01:55:46.641Z,8.90
2022-11-16T01:58:26.138Z,8.86
2022-11-16T02:00:58.954Z,8.84
2022-11-16T02:03:37.659Z,8.85
2022-11-16T02:06:23.350Z,8.86
2022-11-16T02:09:13.710Z,8.85
2022-11-16T02:12:01.079Z,8.88
2022-11-16T02:14:55.177Z,8.87
2022-11-16T02:17:47.174Z,8.90
2022-11-16T02:20:27.117Z,8.85
2022-11-16T02:22:57.320Z,8.87
2022-11-16T02:25:45.131Z,8.85
2022-11-16T02:28:52.252Z,8.89
2022-11-16T02:31:37.045Z,8.91
2022-11-16T02:34:07.756Z,8.89
2022-11-16T02:36:38.773Z,8.93
2022-11-16T02:39:14.636Z,8.89
2022-11-16T02:41:44.028Z,8.89
2022-11-16T02:44:17.346Z,8.85
2022-11-16T02:46:46.262Z,8.85
2022-11-16T02:49:19.129Z,8.82
2022-11-16T02:51:47.525Z,8.85
2022-11-16T02:54:17.612Z,8.89
2022-11-16T02:57:15.530Z,8.86
2022-11-16T02:59:46.601Z,8.82
2022-11-16T03:02:13.773Z,8.81
2022-11-16T03:04:45.871Z,8.82
2022-11-16T03:07:16.162Z,8.87
2022-11-16T03:09:46.748Z,8.80
2022-11-16T03:12:16.573Z,8.82
2022-11-16T03:14:46.853Z,8.77
2022-11-16T03:17:20.131Z,8.78
2022-11-16T03:20:09.433Z,8.76
2022-11-16T03:22:42.006Z,8.75
2022-11-16T03:25:15.763Z,8.70
2022-11-16T03:27:52.469Z,8.73
2022-11-16T03:30:23.997Z,8.74
2022-11-16T03:33:05.764Z,8.78
2022-11-16T03:35:36.366Z,8.68
2022-11-16T03:38:06.383Z,8.73
2022-11-16T03:40:36.021Z,8.76
2022-11-16T03:43:06.432Z,8.74
2022-11-16T03:45:34.014Z,8.76
2022-11-16T03:48:01.055Z,8.74
2022-11-16T03:50:28.170Z,8.70
2022-11-16T03:52:55.307Z,8.71
2022-11-16T03:55:22.567Z,8.75
2022-11-16T03:57:49.635Z,8.76
2022-11-16T04:00:16.848Z,8.80
2022-11-16T04:02:44.517Z,8.77
2022-11-16T04:05:18.108Z,8.82
2022-11-16T04:07:45.111Z,8.79
2022-11-16T04:10:12.953Z,8.82
2022-11-16T04:12:43.768Z,8.82
2022-11-16T04:15:10.836Z,8.78
2022-11-16T04:17:37.803Z,8.76
2022-11-16T04:20:05.704Z,8.81
2022-11-16T04:22:39.780Z,8.82
2022-11-16T04:25:27.074Z,8.83
2022-11-16T04:27:54.861Z,8.74
2022-11-16T04:30:22.206Z,8.83
2022-11-16T04:32:50.246Z,8.80
2022-11-16T04:35:17.630Z,8.85
2022-11-16T04:37:45.476Z,8.85
2022-11-16T04:40:13.064Z,8.81
2022-11-16T04:42:40.131Z,8.83
2022-11-16T04:45:07.842Z,8.86
2022-11-16T04:47:42.169Z,8.90
2022-11-16T04:50:09.379Z,8.92
2022-11-16T04:52:36.373Z,8.95
2022-11-16T04:55:05.609Z,8.93
2022-11-16T04:57:32.816Z,8.91
2022-11-16T04:59:59.926Z,8.96
2022-11-16T05:02:27.707Z,8.97
2022-11-16T05:04:57.858Z,8.97
2022-11-16T05:07:26.227Z,9.01
2022-11-16T05:10:00.803Z,9.03
2022-11-16T05:12:28.554Z,9.05
2022-11-16T05:14:59.331Z,9.00
2022-11-16T05:17:29.498Z,9.04
2022-11-16T05:19:59.139Z,9.08
2022-11-16T05:22:27.698Z,9.07
2022-11-16T05:24:56.909Z,9.10
2022-11-16T05:27:25.429Z,9.14
2022-11-16T05:29:53.095Z,9.15
2022-11-16T05:32:24.483Z,9.05
2022-11-16T05:34:54.032Z,9.11
2022-11-16T05:37:22.617Z,9.12
2022-11-16T05:39:50.275Z,9.13
2022-11-16T05:42:19.084Z,9.09
2022-11-16T05:44:46.247Z,9.03
2022-11-16T05:47:13.367Z,9.06
2022-11-16T05:49:40.499Z,9.09
2022-11-16T05:52:08.063Z,9.08
2022-11-16T05:54:35.325Z,9.06
2022-11-16T05:57:02.495Z,9.06
2022-11-16T05:59:29.533Z,9.08
2022-11-16T06:01:59.044Z,9.08
2022-11-16T06:04:26.537Z,9.09
2022-11-16T06:06:54.595Z,9.09
2022-11-16T06:09:23.396Z,9.07
2022-11-16T06:11:50.615Z,9.04
2022-11-16T06:14:17.637Z,9.07
2022-11-16T06:16:44.769Z,9.09
2022-11-16T06:19:11.770Z,9.09
2022-11-16T06:21:38.851Z,9.10
2022-11-16T06:24:11.842Z,9.13
2022-11-16T06:26:39.561Z,9.11
2022-11-16T06:29:06.755Z,9.14
2022-11-16T06:31:35.187Z,9.11
2022-11-16T06:34:03.578Z,9.14
2022-11-16T06:36:30.662Z,9.14
2022-11-16T06:39:00.103Z,9.11
2022-11-16T06:41:28.939Z,9.12
2022-11-16T06:43:56.456Z,9.15
2022-11-16T06:46:29.764Z,9.14
2022-11-16T06:48:58.528Z,9.11
2022-11-16T06:51:25.541Z,9.09
2022-11-16T06:53:53.058Z,9.06
2022-11-16T06:56:21.209Z,9.03
2022-11-16T06:58:56.113Z,9.06
2022-11-16T07:01:24.888Z,9.08
2022-11-16T07:03:56.928Z,9.06
2022-11-16T07:06:23.883Z,9.10
2022-11-16T07:08:50.903Z,9.13
2022-11-16T07:11:23.106Z,9.14
2022-11-16T07:13:50.059Z,9.12
2022-11-16T07:16:17.694Z,9.14
2022-11-16T07:18:51.614Z,9.18
2022-11-16T07:21:19.235Z,9.21
2022-11-16T07:23:46.665Z,9.23
2022-11-16T07:26:18.673Z,9.29
2022-11-16T07:28:51.490Z,9.28
2022-11-16T07:31:21.540Z,9.31
2022-11-16T07:34:45.135Z,9.32
2022-11-16T07:38:09.749Z,9.35
2022-11-16T07:41:45.596Z,9.35
2022-11-16T07:45:08.944Z,9.34
2022-11-16T07:48:22.490Z,9.40
2022-11-16T07:51:15.558Z,9.40
2022-11-16T07:53:53.168Z,9.41
2022-11-16T07:56:20.174Z,9.44
2022-11-16T07:58:48.506Z,9.50
2022-11-16T08:01:17.817Z,9.52
2022-11-16T08:03:46.922Z,9.61
2022-11-16T08:06:18.138Z,9.66
2022-11-16T08:08:45.135Z,9.72
2022-11-16T08:11:13.502Z,9.76
2022-11-16T08:13:42.282Z,9.82
2022-11-16T08:16:15.719Z,9.84
2022-11-16T08:18:45.271Z,9.85
2022-11-16T08:21:15.405Z,9.87
2022-11-16T08:23:44.209Z,9.93
2022-11-16T08:26:18.507Z,10.01
2022-11-16T08:28:51.147Z,10.05
2022-11-16T08:31:25.536Z,10.10
2022-11-16T08:34:00.285Z,10.10
2022-11-16T08:36:28.074Z,10.12
2022-11-16T08:38:55.154Z,10.17
2022-11-16T08:41:24.322Z,10.18
2022-11-16T08:43:51.382Z,10.26
2022-11-16T08:46:20.917Z,10.42
2022-11-16T08:48:57.578Z,10.50
2022-11-16T08:51:25.262Z,10.54
2022-11-16T08:53:59.859Z,10.57
2022-11-16T08:56:28.019Z,10.69
2022-11-16T08:58:58.621Z,10.87
2022-11-16T09:01:28.809Z,11.05
2022-11-16T09:03:56.229Z,11.17
2022-11-16T09:06:24.842Z,11.38
2022-11-16T09:08:52.239Z,11.64
2022-11-16T09:11:22.261Z,11.80
2022-11-16T09:13:51.864Z,12.02
2022-11-16T09:16:20.098Z,12.22
2022-11-16T09:18:49.967Z,12.39
2022-11-16T09:21:22.139Z,12.69
2022-11-16T09:23:49.950Z,12.82
2022-11-16T09:26:18.315Z,12.96
2022-11-16T09:28:45.322Z,13.01
2022-11-16T09:31:12.341Z,13.09
2022-11-16T09:33:39.344Z,13.07
2022-11-16T09:36:09.053Z,13.00
2022-11-16T09:39:13.965Z,13.04
2022-11-16T09:42:06.736Z,13.11
2022-11-16T09:44:58.214Z,12.92
2022-11-16T09:47:38.105Z,12.70
2022-11-16T09:50:07.118Z,12.76
2022-11-16T09:52:43.030Z,12.79
2022-11-16T09:55:28.523Z,12.85
2022-11-16T09:57:59.160Z,12.78
2022-11-16T10:00:28.010Z,12.85
2022-11-16T10:03:04.255Z,12.78
2022-11-16T10:05:40.017Z,12.83
2022-11-16T10:08:22.162Z,12.78
2022-11-16T10:11:13.477Z,12.85
2022-11-16T10:14:11.410Z,12.79
2022-11-16T10:16:50.555Z,12.66
2022-11-16T10:19:30.781Z,12.70
2022-11-16T10:22:53.096Z,12.77
2022-11-16T10:25:26.223Z,12.68
2022-11-16T10:28:11.219Z,12.48
2022-11-16T10:30:58.232Z,12.61
2022-11-16T10:33:26.676Z,12.76
2022-11-16T10:35:53.746Z,12.58
2022-11-16T10:38:27.392Z,12.60
2022-11-16T10:41:05.580Z,12.77
2022-11-16T10:43:33.927Z,12.87
2022-11-16T10:46:22.253Z,12.81
2022-11-16T10:48:54.364Z,12.73
2022-11-16T10:51:21.417Z,12.68
2022-11-16T10:53:48.388Z,12.68
2022-11-16T10:56:17.066Z,12.60
2022-11-16T10:59:01.872Z,12.70
2022-11-16T11:01:37.891Z,12.67
2022-11-16T11:04:22.953Z,12.77
2022-11-16T11:06:58.637Z,12.60
2022-11-16T11:09:27.715Z,12.72
2022-11-16T11:12:12.899Z,12.82
2022-11-16T11:14:39.877Z,12.96
2022-11-16T11:17:17.432Z,13.05
2022-11-16T11:19:44.441Z,13.02
2022-11-16T11:22:14.458Z,13.08
2022-11-16T11:24:47.678Z,13.12
2022-11-16T11:27:22.337Z,13.11
2022-11-16T11:29:55.208Z,13.18
2022-11-16T11:32:31.866Z,13.31
2022-11-16T11:34:59.212Z,13.17
2022-11-16T11:37:33.287Z,13.19
2022-11-16T11:40:09.316Z,13.05
2022-11-16T11:42:41.001Z,12.78
2022-11-16T11:45:13.470Z,12.97
2022-11-16T11:48:02.458Z,12.84
2022-11-16T11:50:52.618Z,12.58
2022-11-16T11:53:45.698Z,12.24
2022-11-16T11:56:14.487Z,12.25
2022-11-16T11:58:43.026Z,12.38
2022-11-16T12:01:47.894Z,12.48
2022-11-16T12:04:42.638Z,12.44
2022-11-16T12:07:27.306Z,12.63
2022-11-16T12:10:26.250Z,12.68
2022-11-16T12:13:08.006Z,12.85
2022-11-16T12:16:05.908Z,13.03
2022-11-16T12:18:50.893Z,12.93
2022-11-16T12:21:30.957Z,13.04
2022-11-16T12:24:23.722Z,13.03
2022-11-16T12:27:18.125Z,13.12
2022-11-16T12:30:03.801Z,13.18
2022-11-16T12:32:39.736Z,13.17
2022-11-16T12:35:21.825Z,13.00
2022-11-16T12:38:02.041Z,13.07
2022-11-16T12:40:34.109Z,13.10
2022-11-16T12:43:21.015Z,13.13
2022-11-16T12:46:15.073Z,13.35
2022-11-16T12:48:55.639Z,13.29
2022-11-16T12:51:45.232Z,13.13
2022-11-16T12:54:30.726Z,13.20
2022-11-16T12:57:16.022Z,13.35
2022-11-16T12:59:48.983Z,13.15
2022-11-16T13:02:31.242Z,13.24
2022-11-16T13:05:07.215Z,13.24
2022-11-16T13:07:45.346Z,13.23
2022-11-16T13:10:18.208Z,13.18
2022-11-16T13:12:55.825Z,13.22
2022-11-16T13:15:35.764Z,13.18
2022-11-16T13:18:04.876Z,13.18
2022-11-16T13:20:39.650Z,12.91
2022-11-16T13:23:19.269Z,12.94
2022-11-16T13:25:53.770Z,12.96
2022-11-16T13:28:36.994Z,12.91
2022-11-16T13:31:25.606Z,12.83
2022-11-16T13:34:02.948Z,12.76
2022-11-16T13:36:36.015Z,12.70
2022-11-16T13:39:05.400Z,12.73
2022-11-16T13:41:41.841Z,12.54
2022-11-16T13:44:25.587Z,12.55
2022-11-16T13:46:57.587Z,12.55
2022-11-16T13:49:41.249Z,12.49
2022-11-16T13:52:41.005Z,12.55
2022-11-16T13:55:16.215Z,12.51
2022-11-16T13:57:51.964Z,12.55
2022-11-16T14:00:53.647Z,12.61
2022-11-16T14:03:20.626Z,12.59
2022-11-16T14:05:52.557Z,12.59
2022-11-16T14:08:19.733Z,12.55
2022-11-16T14:10:49.721Z,12.64
2022-11-16T14:13:35.491Z,12.55
2022-11-16T14:16:14.629Z,12.57
2022-11-16T14:18:42.899Z,12.44
2022-11-16T14:21:43.804Z,12.46
2022-11-16T14:24:16.965Z,12.44
2022-11-16T14:27:16.788Z,12.39
2022-11-16T14:29:47.014Z,12.32
2022-11-16T14:32:21.610Z,12.22
2022-11-16T14:34:51.738Z,12.18
2022-11-16T14:37:21.749Z,12.10
2022-11-16T14:40:07.881Z,11.96
2022-11-16T14:43:01.879Z,11.94
2022-11-16T14:45:35.748Z,11.90
2022-11-16T14:48:06.417Z,11.89
2022-11-16T14:50:38.131Z,11.84
2022-11-16T14:53:09.375Z,11.78
2022-11-16T14:55:42.705Z,11.70
2022-11-16T14:58:22.305Z,11.59
2022-11-16T15:00:58.869Z,11.47
2022-11-16T15:03:40.221Z,11.30
2022-11-16T15:06:08.160Z,11.12
2022-11-16T15:08:43.113Z,11.06
2022-11-16T15:11:20.688Z,11.03
2022-11-16T15:13:49.165Z,10.91
2022-11-16T15:16:19.712Z,10.91
2022-11-16T15:18:58.024Z,10.89
2022-11-16T15:21:25.719Z,10.85
2022-11-16T15:24:23.337Z,10.75
2022-11-16T15:26:40.045Z,10.71
2022-11-16T15:29:15.200Z,10.64
2022-11-16T15:31:42.356Z,10.58
2022-11-16T15:34:13.060Z,10.47
2022-11-16T15:36:41.023Z,10.32
2022-11-16T15:39:19.624Z,10.31
2022-11-16T15:41:47.143Z,10.20
2022-11-16T15:44:17.591Z,10.10
2022-11-16T15:46:49.080Z,10.09
2022-11-16T15:49:36.128Z,10.01
2022-11-16T15:52:03.428Z,10.01
2022-11-16T15:54:32.998Z,9.95
2022-11-16T15:57:11.840Z,10.00
2022-11-16T15:59:38.935Z,9.98
2022-11-16T16:02:18.120Z,10.02
2022-11-16T16:04:45.178Z,10.04
2022-11-16T16:07:32.245Z,10.09
2022-11-16T16:10:18.752Z,10.07
2022-11-16T16:12:54.810Z,10.06
2022-11-16T16:15:29.388Z,10.03
2022-11-16T16:17:58.556Z,9.98
2022-11-16T16:20:29.180Z,9.95
2022-11-16T16:23:12.708Z,9.87
2022-11-16T16:25:39.696Z,9.83
2022-11-16T16:28:06.850Z,9.86
2022-11-16T16:30:34.068Z,9.91
2022-11-16T16:33:02.118Z,9.87
2022-11-16T16:35:29.485Z,9.93
2022-11-16T16:38:01.344Z,9.96
2022-11-16T16:40:29.690Z,9.98
2022-11-16T16:42:57.137Z,9.94
2022-11-16T16:45:34.860Z,9.97
2022-11-16T16:48:01.860Z,9.88
2022-11-16T16:50:28.915Z,9.84
2022-11-16T16:52:55.903Z,9.84
2022-11-16T16:55:23.274Z,9.85
2022-11-16T16:57:50.319Z,9.81
2022-11-16T17:00:17.755Z,9.83
2022-11-16T17:02:44.785Z,9.72
2022-11-16T17:05:11.749Z,9.65
2022-11-16T17:07:38.760Z,9.73
2022-11-16T17:10:06.562Z,9.72
2022-11-16T17:12:33.562Z,9.75
2022-11-16T17:15:00.650Z,9.73
2022-11-16T17:17:27.633Z,9.72
2022-11-16T17:19:54.610Z,9.75
2022-11-16T17:22:21.649Z,9.72
2022-11-16T17:24:48.715Z,9.71
2022-11-16T17:27:15.669Z,9.73
2022-11-16T17:29:42.738Z,9.72
2022-11-16T17:32:09.786Z,9.63
2022-11-16T17:34:36.833Z,9.63
2022-11-16T17:37:03.902Z,9.61
2022-11-16T17:39:30.856Z,9.63
2022-11-16T17:41:57.857Z,9.58
2022-11-16T17:44:24.879Z,9.56
2022-11-16T17:46:52.009Z,9.57
2022-11-16T17:49:18.978Z,9.56
2022-11-16T17:51:45.963Z,9.61
2022-11-16T17:54:12.952Z,9.61
2022-11-16T17:56:40.187Z,9.60
2022-11-16T17:59:07.147Z,9.57
2022-11-16T18:01:34.188Z,9.58
2022-11-16T18:04:01.257Z,9.64
2022-11-16T18:06:28.731Z,9.58
2022-11-16T18:08:56.823Z,9.58
2022-11-16T18:11:26.284Z,9.56
2022-11-16T18:13:55.681Z,9.50
2022-11-16T18:16:25.395Z,9.53
2022-11-16T18:19:01.060Z,9.52
2022-11-16T18:21:28.388Z,9.54
2022-11-16T18:23:55.757Z,9.54
2022-11-16T18:26:23.895Z,9.58
2022-11-16T18:28:52.291Z,9.48
2022-11-16T18:31:22.385Z,9.46
2022-11-16T18:33:49.923Z,9.49
2022-11-16T18:36:18.857Z,9.43
2022-11-16T18:38:46.514Z,9.45
2022-11-16T18:41:13.450Z,9.43
2022-11-16T18:43:42.101Z,9.32
2022-11-16T18:46:09.091Z,9.32
2022-11-16T18:48:36.075Z,9.33
2022-11-16T18:51:04.562Z,9.34
2022-11-16T18:53:33.693Z,9.33
2022-11-16T18:56:01.147Z,9.37
2022-11-16T18:58:50.317Z,9.36
2022-11-16T19:01:17.744Z,9.35
2022-11-16T19:03:44.799Z,9.38
2022-11-16T19:06:11.964Z,9.39
2022-11-16T19:08:40.695Z,9.40
2022-11-16T19:11:10.229Z,9.45
2022-11-16T19:13:38.227Z,9.36
2022-11-16T19:16:06.313Z,9.40
2022-11-16T19:18:33.310Z,9.36
2022-11-16T19:21:12.375Z,9.37
2022-11-16T19:23:41.730Z,9.34
2022-11-16T19:26:10.089Z,9.33
2022-11-16T19:28:42.107Z,9.34
2022-11-16T19:31:23.696Z,9.28
2022-11-16T19:33:55.312Z,9.29
2022-11-16T19:36:23.219Z,9.23
2022-11-16T19:38:50.407Z,9.23
2022-11-16T19:41:18.803Z,9.26
2022-11-16T19:43:45.766Z,9.24
2022-11-16T19:46:14.771Z,9.23
2022-11-16T19:48:42.584Z,9.22
2022-11-16T19:51:12.554Z,9.24
2022-11-16T19:53:40.421Z,9.23
2022-11-16T19:56:11.309Z,9.25
2022-11-16T19:58:38.644Z,9.23
2022-11-16T20:01:09.612Z,9.24
2022-11-16T20:03:37.110Z,9.24
2022-11-16T20:06:17.435Z,9.20
2022-11-16T20:08:53.021Z,9.21
2022-11-16T20:11:23.214Z,9.20
2022-11-16T20:13:52.244Z,9.20
2022-11-16T20:16:21.403Z,9.20
2022-11-16T20:18:49.007Z,9.19
2022-11-16T20:21:27.384Z,9.23
2022-11-16T20:23:55.594Z,9.20
2022-11-16T20:26:24.442Z,9.20
2022-11-16T20:28:52.443Z,9.18
2022-11-16T20:31:22.131Z,9.15
2022-11-16T20:33:54.127Z,9.12
2022-11-16T20:36:22.175Z,9.12
2022-11-16T20:38:49.332Z,9.11
2022-11-16T20:41:19.264Z,9.14
2022-11-16T20:43:47.544Z,9.09
2022-11-16T20:46:16.634Z,9.07
2022-11-16T20:48:45.018Z,9.08
2022-11-16T20:51:14.439Z,9.09
2022-11-16T20:53:41.406Z,9.03
2022-11-16T20:56:10.049Z,9.06
2022-11-16T20:58:37.809Z,9.09
2022-11-16T21:01:06.632Z,9.05
2022-11-16T21:03:34.881Z,9.01
2022-11-16T21:06:02.244Z,8.92
2022-11-16T21:08:29.420Z,8.78
2022-11-16T21:10:56.586Z,8.77
2022-11-16T21:13:23.717Z,8.74
2022-11-16T21:15:55.541Z,8.70
2022-11-16T21:18:26.503Z,8.71
2022-11-16T21:21:13.456Z,8.62
2022-11-16T21:23:42.741Z,8.61
2022-11-16T21:26:12.310Z,8.58
2022-11-16T21:28:39.689Z,8.49
2022-11-16T21:31:10.033Z,8.45
2022-11-16T21:33:37.500Z,8.44
2022-11-16T21:36:06.398Z,8.41
2022-11-16T21:38:34.456Z,8.37
2022-11-16T21:41:02.728Z,8.35
2022-11-16T21:43:29.727Z,8.38
2022-11-16T21:46:05.205Z,8.35
2022-11-16T21:48:33.531Z,8.36
2022-11-16T21:51:08.567Z,8.39
2022-11-16T21:53:36.875Z,8.36
2022-11-16T21:56:05.063Z,8.36
2022-11-16T21:58:32.055Z,8.36
2022-11-16T22:01:01.362Z,8.40
2022-11-16T22:03:31.433Z,8.40
2022-11-16T22:06:01.561Z,8.39
2022-11-16T22:08:28.541Z,8.37
2022-11-16T22:10:55.558Z,8.35
2022-11-16T22:13:22.631Z,8.36
2022-11-16T22:15:49.589Z,8.26
2022-11-16T22:18:16.566Z,8.36
2022-11-16T22:20:46.759Z,8.38
2022-11-16T22:23:18.623Z,8.32
2022-11-16T22:25:49.725Z,8.35
2022-11-16T22:28:21.148Z,8.35
2022-11-16T22:30:51.655Z,8.40
2022-11-16T22:33:19.087Z,8.35
2022-11-16T22:35:46.781Z,8.31
2022-11-16T22:38:13.755Z,8.22
2022-11-16T22:40:40.755Z,8.20
2022-11-16T22:43:07.758Z,8.16
2022-11-16T22:45:34.765Z,8.15
2022-11-16T22:48:01.718Z,8.03
2022-11-16T22:50:28.701Z,8.02
2022-11-16T22:52:58.368Z,8.00
2022-11-16T22:55:25.342Z,7.93
2022-11-16T22:57:52.297Z,7.94
2022-11-16T23:00:19.598Z,7.96
2022-11-16T23:02:46.639Z,7.93
2022-11-16T23:05:13.691Z,7.87
2022-11-16T23:07:40.719Z,7.83
2022-11-16T23:10:08.198Z,7.86
2022-11-16T23:12:37.237Z,7.90
2022-11-16T23:15:04.661Z,7.84
2022-11-16T23:17:31.635Z,7.85
2022-11-16T23:19:59.567Z,7.90
2022-11-16T23:22:26.556Z,7.91
2022-11-16T23:24:53.582Z,7.91
2022-11-16T23:27:20.608Z,7.92
2022-11-16T23:29:47.802Z,7.85
2022-11-16T23:32:14.987Z,7.91
2022-11-16T23:34:41.986Z,7.88
2022-11-16T23:37:08.956Z,7.85
2022-11-16T23:39:35.944Z,7.85
2022-11-16T23:42:03.116Z,7.80
2022-11-16T23:44:30.100Z,7.85
2022-11-16T23:46:57.147Z,7.84
2022-11-16T23:49:24.316Z,7.84
2022-11-16T23:51:51.291Z,7.88
2022-11-16T23:54:18.263Z,7.81
2022-11-16T23:56:45.231Z,7.83
2022-11-16T23:59:12.249Z,7.83
